Terminal Aerodrome Forecast
Issued by NWS Tampa Bay Area, FL

Home | Current Version | Previous Version | Text Only | Print | Product List | Glossary On
Versions: 1 2 3 4 5 6 7 8 9 10 11 12 13 14 15 16 17 18 19 20 21 22 23 24 25 26 27 28 29 30 31 32 33
000
FTUS42 KTBW 281100 AAA
TAFTPA
TAF AMD
KTPA 281151Z 2812/0112 04007KT P6SM VCSH OVC020
      TEMPO 2812/2814 SHRA BKN012
     FM281400 06008KT P6SM SHRA OVC020
     FM281800 05008KT 6SM SHRA BKN025
     FM010100 05008KT 6SM BR BKN015
     FM010500 05006KT 4SM BR BKN010=

USA.gov is the U.S. government's official web portal to all federal, state and local government web resources and services.